Grez-Doiceau, Belgium
Current Conditions -  °F | °C
As of 3:43 AM on Tuesday 23 Dec 2014 (Local Time) from EBBE Reporting Station
Overcast Overcast  
Wind Chill: 52°   Ceiling: 2700
Heat Index: 52°   Visibility: 6mi
Dew Point: 45°   Wind: 22mph
Humidity: 76%   Direction: 240°WSW
Pressure: 30.15"   Gusts: NA
Location:  50.74°N, 4.7°E
Report Text: EBBE 230243Z AUTO 24019KT 9999 FEW021/// OVC027/// 11/07 Q1021 BLU
Loading
Personal Weather Stations






























Interactive Weather Map New forecast layout! Learn more

10-Day Weather Forecast

Advertisements
Track Severe Weather on mobile